createdAt,value
2019-03-09T00:00:58.421Z,38.90
2019-03-09T00:03:30.877Z,39.00
2019-03-09T00:06:03.243Z,39.20
2019-03-09T00:08:35.620Z,39.10
2019-03-09T00:11:09.139Z,39.10
2019-03-09T00:13:41.539Z,39.00
2019-03-09T00:16:13.909Z,39.00
2019-03-09T00:18:46.304Z,39.00
2019-03-09T00:21:18.669Z,39.00
2019-03-09T00:24:08.608Z,39.10
2019-03-09T00:27:02.940Z,39.10
2019-03-09T00:29:54.313Z,39.10
2019-03-09T00:32:27.910Z,39.00
2019-03-09T00:35:00.299Z,39.00
2019-03-09T00:37:32.690Z,39.00
2019-03-09T00:40:05.660Z,39.00
2019-03-09T00:42:38.431Z,39.00
2019-03-09T00:45:10.985Z,39.40
2019-03-09T00:47:43.410Z,39.00
2019-03-09T00:50:15.776Z,39.10
2019-03-09T00:52:48.097Z,39.10
2019-03-09T00:55:20.322Z,39.00
2019-03-09T00:57:52.731Z,39.10
2019-03-09T01:00:25.494Z,39.00
2019-03-09T01:02:57.987Z,39.00
2019-03-09T01:05:30.287Z,39.00
2019-03-09T01:08:02.701Z,39.10
2019-03-09T01:10:36.036Z,39.20
2019-03-09T01:13:08.437Z,39.70
2019-03-09T01:15:40.800Z,39.00
2019-03-09T01:18:13.177Z,39.20
2019-03-09T01:20:45.542Z,39.20
2019-03-09T01:23:17.940Z,39.20
2019-03-09T01:25:50.311Z,39.30
2019-03-09T01:28:22.717Z,39.30
2019-03-09T01:30:55.078Z,39.20
2019-03-09T01:33:27.474Z,39.10
2019-03-09T01:35:59.842Z,39.20
2019-03-09T01:38:32.226Z,39.10
2019-03-09T01:41:04.614Z,39.00
2019-03-09T01:43:36.971Z,39.00
2019-03-09T01:46:09.356Z,39.00
2019-03-09T01:48:41.710Z,39.10
2019-03-09T01:51:14.126Z,39.00
2019-03-09T01:53:46.550Z,39.20
2019-03-09T01:56:18.947Z,39.20
2019-03-09T01:58:51.316Z,39.20
2019-03-09T02:01:23.728Z,39.00
2019-03-09T02:03:59.358Z,39.10
2019-03-09T02:06:32.832Z,39.20
2019-03-09T02:09:06.645Z,39.10
2019-03-09T02:11:40.596Z,39.30
2019-03-09T02:14:12.952Z,39.30
2019-03-09T02:16:45.340Z,39.40
2019-03-09T02:19:17.696Z,39.60
2019-03-09T02:21:50.086Z,39.50
2019-03-09T02:24:22.454Z,39.50
2019-03-09T02:26:54.867Z,39.50
2019-03-09T02:29:27.250Z,39.60
2019-03-09T02:31:59.663Z,39.50
2019-03-09T02:34:32.044Z,39.50
2019-03-09T02:37:04.455Z,40.00
2019-03-09T02:39:42.060Z,39.60
2019-03-09T02:42:14.454Z,39.60
2019-03-09T02:44:46.832Z,39.60
2019-03-09T02:47:19.247Z,39.70
2019-03-09T02:49:51.627Z,39.80
2019-03-09T02:52:24.021Z,40.50
2019-03-09T02:54:56.446Z,39.80
2019-03-09T02:57:28.957Z,39.80
2019-03-09T03:00:01.836Z,39.80
2019-03-09T03:02:42.382Z,39.90
2019-03-09T03:05:14.808Z,40.00
2019-03-09T03:07:47.251Z,40.00
2019-03-09T03:10:19.600Z,40.00
2019-03-09T03:12:51.979Z,40.10
2019-03-09T03:15:33.456Z,40.10
2019-03-09T03:18:05.891Z,40.20
2019-03-09T03:20:38.184Z,40.10
2019-03-09T03:23:10.495Z,40.30
2019-03-09T03:25:42.862Z,40.40
2019-03-09T03:28:15.266Z,40.40
2019-03-09T03:30:47.635Z,40.50
2019-03-09T03:33:19.988Z,40.50
2019-03-09T03:35:52.397Z,40.60
2019-03-09T03:38:25.762Z,41.20
2019-03-09T03:40:58.120Z,40.60
2019-03-09T03:43:30.441Z,40.60
2019-03-09T03:46:02.797Z,40.70
2019-03-09T03:48:35.190Z,40.80
2019-03-09T03:51:07.567Z,40.80
2019-03-09T03:53:40.014Z,40.80
2019-03-09T03:56:12.391Z,40.90
2019-03-09T03:58:44.791Z,40.90
2019-03-09T04:01:17.130Z,40.90
2019-03-09T04:03:49.627Z,41.20
2019-03-09T04:06:22.341Z,41.50
2019-03-09T04:08:54.706Z,41.70
2019-03-09T04:11:27.189Z,41.60
2019-03-09T04:14:01.509Z,41.70
2019-03-09T04:16:34.225Z,41.80
2019-03-09T04:19:06.821Z,41.80
2019-03-09T04:21:39.249Z,41.90
2019-03-09T04:24:11.634Z,42.20
2019-03-09T04:26:43.986Z,42.10
2019-03-09T04:29:16.375Z,42.10
2019-03-09T04:31:48.741Z,42.10
2019-03-09T04:34:21.142Z,42.20
2019-03-09T04:37:01.446Z,42.30
2019-03-09T04:39:33.899Z,42.50
2019-03-09T04:42:06.268Z,42.50
2019-03-09T04:44:38.659Z,42.60
2019-03-09T04:47:11.026Z,42.50
2019-03-09T04:49:43.471Z,42.70
2019-03-09T04:52:16.795Z,42.70
2019-03-09T04:54:49.175Z,42.70
2019-03-09T04:57:21.530Z,42.70
2019-03-09T04:59:53.919Z,42.70
2019-03-09T05:02:26.309Z,42.80
2019-03-09T05:04:58.958Z,42.90
2019-03-09T05:07:38.144Z,43.00
2019-03-09T05:10:58.095Z,43.00
2019-03-09T05:13:41.883Z,43.10
2019-03-09T05:16:14.276Z,43.10
2019-03-09T05:18:46.657Z,43.30
2019-03-09T05:21:19.051Z,43.30
2019-03-09T05:23:51.418Z,43.40
2019-03-09T05:26:23.804Z,43.30
2019-03-09T05:28:56.167Z,43.20
2019-03-09T05:31:28.475Z,43.40
2019-03-09T05:34:00.847Z,43.50
2019-03-09T05:36:33.232Z,43.50
2019-03-09T05:39:06.558Z,43.60
2019-03-09T05:41:39.019Z,43.80
2019-03-09T05:44:11.388Z,43.90
2019-03-09T05:46:43.783Z,43.90
2019-03-09T05:49:16.142Z,44.00
2019-03-09T05:52:29.588Z,44.10
2019-03-09T05:55:14.161Z,44.20
2019-03-09T05:57:46.530Z,44.30
2019-03-09T06:00:18.975Z,44.30
2019-03-09T06:02:51.366Z,44.50
2019-03-09T06:06:15.794Z,44.40
2019-03-09T06:08:50.054Z,44.70
2019-03-09T06:11:22.463Z,44.40
2019-03-09T06:13:54.819Z,44.70
2019-03-09T06:16:27.208Z,44.90
2019-03-09T06:18:59.578Z,45.00
2019-03-09T06:21:31.968Z,45.20
2019-03-09T06:24:04.360Z,45.10
2019-03-09T06:26:36.748Z,45.20
2019-03-09T06:29:09.111Z,45.10
2019-03-09T06:31:46.074Z,45.30
2019-03-09T06:34:18.091Z,45.40
2019-03-09T06:37:08.606Z,45.50
2019-03-09T06:39:48.128Z,45.60
2019-03-09T06:42:51.650Z,45.60
2019-03-09T06:45:24.011Z,45.60
2019-03-09T06:47:56.404Z,45.70
2019-03-09T06:50:28.779Z,45.90
2019-03-09T06:53:02.915Z,46.00
2019-03-09T06:55:35.407Z,46.10
2019-03-09T06:58:07.779Z,46.10
2019-03-09T07:00:42.254Z,46.10
2019-03-09T07:03:14.646Z,46.20
2019-03-09T07:05:47.000Z,46.20
2019-03-09T07:08:19.391Z,46.30
2019-03-09T07:10:51.764Z,46.40
2019-03-09T07:13:24.156Z,46.40
2019-03-09T07:15:56.452Z,46.40
2019-03-09T07:18:34.249Z,46.50
2019-03-09T07:21:07.600Z,46.50
2019-03-09T07:23:39.983Z,46.40
2019-03-09T07:26:12.343Z,46.50
2019-03-09T07:28:44.736Z,46.60
2019-03-09T07:31:17.110Z,46.60
2019-03-09T07:33:49.513Z,46.60
2019-03-09T07:36:21.883Z,46.60
2019-03-09T07:38:54.268Z,46.40
2019-03-09T07:41:26.608Z,46.60
2019-03-09T07:43:58.998Z,46.50
2019-03-09T07:46:31.359Z,46.50
2019-03-09T07:49:03.747Z,46.50
2019-03-09T07:51:36.118Z,46.50
2019-03-09T07:54:08.501Z,46.60
2019-03-09T07:56:40.866Z,46.80
2019-03-09T07:59:13.246Z,47.10
2019-03-09T08:01:45.635Z,47.00
2019-03-09T08:04:18.012Z,47.00
2019-03-09T08:06:57.198Z,47.20
2019-03-09T08:09:29.585Z,47.30
2019-03-09T08:12:01.877Z,47.10
2019-03-09T08:14:34.263Z,47.20
2019-03-09T08:17:06.622Z,47.20
2019-03-09T08:19:39.118Z,47.30
2019-03-09T08:22:11.474Z,47.30
2019-03-09T08:24:44.944Z,47.30
2019-03-09T08:27:18.316Z,47.30
2019-03-09T08:29:50.635Z,47.40
2019-03-09T08:32:22.998Z,47.70
2019-03-09T08:34:55.513Z,47.70
2019-03-09T08:37:29.537Z,47.80
2019-03-09T08:40:01.964Z,47.90
2019-03-09T08:42:34.508Z,47.90
2019-03-09T08:45:07.056Z,47.90
2019-03-09T08:47:40.606Z,47.90
2019-03-09T08:50:15.905Z,47.80
2019-03-09T08:52:48.250Z,47.90
2019-03-09T08:55:20.643Z,47.80
2019-03-09T08:57:53.020Z,48.10
2019-03-09T09:00:30.485Z,47.90
2019-03-09T09:03:03.178Z,47.90
2019-03-09T09:05:35.556Z,48.00
2019-03-09T09:08:07.981Z,48.20
2019-03-09T09:10:40.370Z,48.20
2019-03-09T09:13:12.727Z,48.20
2019-03-09T09:15:45.046Z,48.30
2019-03-09T09:18:17.431Z,48.20
2019-03-09T09:20:49.824Z,48.20
2019-03-09T09:23:23.179Z,48.10
2019-03-09T09:25:55.572Z,48.10
2019-03-09T09:28:27.922Z,48.10
2019-03-09T09:31:00.302Z,48.00
2019-03-09T09:33:32.670Z,48.10
2019-03-09T09:36:05.116Z,48.60
2019-03-09T09:38:37.469Z,48.00
2019-03-09T09:41:09.923Z,48.60
2019-03-09T09:43:42.276Z,48.00
2019-03-09T09:46:17.387Z,48.00
2019-03-09T09:48:49.757Z,48.00
2019-03-09T09:51:22.135Z,48.70
2019-03-09T09:53:54.553Z,48.10
2019-03-09T09:56:26.884Z,48.10
2019-03-09T09:58:59.263Z,48.10
2019-03-09T10:01:31.646Z,48.10
2019-03-09T10:04:04.937Z,48.10
2019-03-09T10:06:37.571Z,48.00
2019-03-09T10:09:11.022Z,48.10
2019-03-09T10:11:43.322Z,48.10
2019-03-09T10:14:15.712Z,48.00
2019-03-09T10:16:48.071Z,48.00
2019-03-09T10:19:20.373Z,47.90
2019-03-09T10:21:52.738Z,48.00
2019-03-09T10:24:25.127Z,47.90
2019-03-09T10:26:57.477Z,47.90
2019-03-09T10:29:29.860Z,47.80
2019-03-09T10:32:02.400Z,47.70
2019-03-09T10:34:34.790Z,47.70
2019-03-09T10:37:07.153Z,47.70
2019-03-09T10:39:40.597Z,47.70
2019-03-09T10:42:12.966Z,47.70
2019-03-09T10:44:45.352Z,47.70
2019-03-09T10:47:17.644Z,47.70
2019-03-09T10:49:50.032Z,47.70
2019-03-09T10:52:22.413Z,47.70
2019-03-09T10:54:54.819Z,47.70
2019-03-09T10:57:27.178Z,47.70
2019-03-09T10:59:59.563Z,47.80
2019-03-09T11:02:31.957Z,47.80
2019-03-09T11:05:04.399Z,47.70
2019-03-09T11:07:36.765Z,47.90
2019-03-09T11:10:09.184Z,47.80
2019-03-09T11:12:42.180Z,47.70
2019-03-09T11:15:15.576Z,47.70
2019-03-09T11:17:47.928Z,47.60
2019-03-09T11:20:20.352Z,47.70
2019-03-09T11:22:52.823Z,47.60
2019-03-09T11:25:25.286Z,47.60
2019-03-09T11:28:11.486Z,47.60
2019-03-09T11:30:43.864Z,47.50
2019-03-09T11:33:16.223Z,47.40
2019-03-09T11:35:48.708Z,47.60
2019-03-09T11:38:21.060Z,47.60
2019-03-09T11:40:57.368Z,47.60
2019-03-09T11:43:27.592Z,47.60
2019-03-09T11:45:59.982Z,48.10
2019-03-09T11:48:32.346Z,47.60
2019-03-09T11:51:04.728Z,47.70
2019-03-09T11:53:37.081Z,47.60
2019-03-09T11:56:09.464Z,47.60
2019-03-09T11:58:41.826Z,47.60
2019-03-09T12:01:14.242Z,47.60
2019-03-09T12:03:47.440Z,47.60
2019-03-09T12:06:19.958Z,47.60
2019-03-09T12:08:52.330Z,47.70
2019-03-09T12:11:24.714Z,47.80
2019-03-09T12:13:57.074Z,47.80
2019-03-09T12:16:29.465Z,47.90
2019-03-09T12:19:01.827Z,47.90
2019-03-09T12:21:34.203Z,47.90
2019-03-09T12:24:16.241Z,48.00
2019-03-09T12:26:40.666Z,48.10
2019-03-09T12:29:13.023Z,48.10
2019-03-09T12:31:45.403Z,48.10
2019-03-09T12:34:17.773Z,48.10
2019-03-09T12:36:50.158Z,48.20
2019-03-09T12:39:22.599Z,48.20
2019-03-09T12:41:55.010Z,48.20
2019-03-09T12:44:28.453Z,48.20
2019-03-09T12:47:00.863Z,48.30
2019-03-09T12:49:33.293Z,48.30
2019-03-09T12:52:05.702Z,48.40
2019-03-09T12:54:38.072Z,48.40
2019-03-09T12:57:10.376Z,48.40
2019-03-09T12:59:43.400Z,48.40
2019-03-09T13:02:15.741Z,48.40
2019-03-09T13:04:48.093Z,48.40
2019-03-09T13:07:20.418Z,48.40
2019-03-09T13:09:52.808Z,48.50
2019-03-09T13:12:28.306Z,48.50
2019-03-09T13:15:00.686Z,48.70
2019-03-09T13:17:33.065Z,48.60
2019-03-09T13:20:05.771Z,48.60
2019-03-09T13:22:38.149Z,48.60
2019-03-09T13:25:10.472Z,48.60
2019-03-09T13:27:42.844Z,48.70
2019-03-09T13:30:18.761Z,48.70
2019-03-09T13:32:51.194Z,48.60
2019-03-09T13:35:23.475Z,48.60
2019-03-09T13:37:55.871Z,48.60
2019-03-09T13:40:28.264Z,48.70
2019-03-09T13:43:00.632Z,48.70
2019-03-09T13:45:34.062Z,48.70
2019-03-09T13:48:06.507Z,48.80
2019-03-09T13:50:38.873Z,48.80
2019-03-09T13:53:11.258Z,48.80
2019-03-09T13:55:43.689Z,48.80
2019-03-09T13:58:16.072Z,49.00
2019-03-09T14:00:48.424Z,49.10
2019-03-09T14:03:20.875Z,49.20
2019-03-09T14:05:53.244Z,49.30
2019-03-09T14:08:25.641Z,49.30
2019-03-09T14:11:21.388Z,50.00
2019-03-09T14:13:53.845Z,49.40
2019-03-09T14:16:26.165Z,49.50
2019-03-09T14:18:59.624Z,49.50
2019-03-09T14:21:31.982Z,49.50
2019-03-09T14:24:04.473Z,49.70
2019-03-09T14:26:36.853Z,49.80
2019-03-09T14:29:09.264Z,49.80
2019-03-09T14:31:41.601Z,49.80
2019-03-09T14:34:14.026Z,49.80
2019-03-09T14:36:46.380Z,50.00
2019-03-09T14:39:18.678Z,50.10
2019-03-09T14:41:51.405Z,50.10
2019-03-09T14:44:23.796Z,50.10
2019-03-09T14:46:56.158Z,50.10
2019-03-09T14:49:28.606Z,50.20
2019-03-09T14:52:00.957Z,50.10
2019-03-09T14:54:34.408Z,50.00
2019-03-09T14:57:06.757Z,50.00
2019-03-09T14:59:39.146Z,49.90
2019-03-09T15:02:12.532Z,49.90
2019-03-09T15:04:44.913Z,49.90
2019-03-09T15:07:17.295Z,49.90
2019-03-09T15:09:49.723Z,49.80
2019-03-09T15:12:22.096Z,49.70
2019-03-09T15:14:54.497Z,49.80
2019-03-09T15:17:26.836Z,49.70
2019-03-09T15:19:59.217Z,49.60
2019-03-09T15:22:31.591Z,49.70
2019-03-09T15:25:04.017Z,49.80
2019-03-09T15:27:36.374Z,49.80
2019-03-09T15:30:11.384Z,49.80
2019-03-09T15:32:43.727Z,49.90
2019-03-09T15:35:16.910Z,49.90
2019-03-09T15:37:49.336Z,49.80
2019-03-09T15:40:21.760Z,49.90
2019-03-09T15:42:54.188Z,49.90
2019-03-09T15:45:26.566Z,49.90
2019-03-09T15:47:59.126Z,49.80
2019-03-09T15:50:31.494Z,49.70
2019-03-09T15:53:03.868Z,49.70
2019-03-09T15:55:36.309Z,49.50
2019-03-09T15:58:08.688Z,49.50
2019-03-09T16:00:41.071Z,49.70
2019-03-09T16:03:13.383Z,49.40
2019-03-09T16:05:45.851Z,49.30
2019-03-09T16:08:18.213Z,49.00
2019-03-09T16:10:50.530Z,49.00
2019-03-09T16:13:24.462Z,49.00
2019-03-09T16:15:56.914Z,49.00
2019-03-09T16:18:29.269Z,48.80
2019-03-09T16:21:01.674Z,48.80
2019-03-09T16:23:34.030Z,48.80
2019-03-09T16:26:06.400Z,48.70
2019-03-09T16:28:38.691Z,48.70
2019-03-09T16:31:11.077Z,48.50
2019-03-09T16:33:43.366Z,48.60
2019-03-09T16:36:15.764Z,48.40
2019-03-09T16:38:48.133Z,48.40
2019-03-09T16:41:20.627Z,48.30
2019-03-09T16:43:52.987Z,48.30
2019-03-09T16:46:25.510Z,48.30
2019-03-09T16:48:57.850Z,48.10
2019-03-09T16:51:30.206Z,48.10
2019-03-09T16:54:02.582Z,48.00
2019-03-09T16:56:35.157Z,48.00
2019-03-09T16:59:07.685Z,47.90
2019-03-09T17:01:40.179Z,47.80
2019-03-09T17:04:12.537Z,47.80
2019-03-09T17:06:44.965Z,47.70
2019-03-09T17:09:17.339Z,47.70
2019-03-09T17:11:49.742Z,47.60
2019-03-09T17:14:22.103Z,47.60
2019-03-09T17:16:54.711Z,47.50
2019-03-09T17:19:27.008Z,47.50
2019-03-09T17:21:59.386Z,47.30
2019-03-09T17:24:31.742Z,47.30
2019-03-09T17:27:04.057Z,47.30
2019-03-09T17:29:36.437Z,47.20
2019-03-09T17:32:08.819Z,47.10
2019-03-09T17:34:42.251Z,47.10
2019-03-09T17:37:14.774Z,47.00
2019-03-09T17:39:47.150Z,47.00
2019-03-09T17:42:19.520Z,46.90
2019-03-09T17:44:51.898Z,46.70
2019-03-09T17:47:24.279Z,46.70
2019-03-09T17:49:56.720Z,46.70
2019-03-09T17:52:29.109Z,46.60
2019-03-09T17:55:01.575Z,46.70
2019-03-09T17:57:34.107Z,46.60
2019-03-09T18:00:11.473Z,46.60
2019-03-09T18:02:43.625Z,46.60
2019-03-09T18:05:15.997Z,46.50
2019-03-09T18:07:49.529Z,46.50
2019-03-09T18:10:36.862Z,46.50
2019-03-09T18:13:09.181Z,46.40
2019-03-09T18:15:41.531Z,46.30
2019-03-09T18:18:14.090Z,46.40
2019-03-09T18:20:46.450Z,46.50
2019-03-09T18:23:25.163Z,46.40
2019-03-09T18:25:57.777Z,46.50
2019-03-09T18:28:30.182Z,46.50
2019-03-09T18:31:02.470Z,46.40
2019-03-09T18:33:35.036Z,46.50
2019-03-09T18:36:07.414Z,46.40
2019-03-09T18:38:39.803Z,46.40
2019-03-09T18:41:12.178Z,46.10
2019-03-09T18:43:44.482Z,46.10
2019-03-09T18:46:16.844Z,46.00
2019-03-09T18:48:49.231Z,45.90
2019-03-09T18:51:21.593Z,46.00
2019-03-09T18:53:54.008Z,45.90
2019-03-09T18:56:26.334Z,45.90
2019-03-09T18:58:58.722Z,45.80
2019-03-09T19:01:31.176Z,45.90
2019-03-09T19:04:03.577Z,45.70
2019-03-09T19:06:35.943Z,45.80
2019-03-09T19:09:10.046Z,45.70
2019-03-09T19:11:44.062Z,45.70
2019-03-09T19:14:16.528Z,45.60
2019-03-09T19:16:48.908Z,45.70
2019-03-09T19:19:21.337Z,45.70
2019-03-09T19:21:53.671Z,45.60
2019-03-09T19:24:26.047Z,45.60
2019-03-09T19:26:58.333Z,45.50
2019-03-09T19:29:30.751Z,45.50
2019-03-09T19:32:03.109Z,45.50
2019-03-09T19:34:35.498Z,45.80
2019-03-09T19:37:07.770Z,45.60
2019-03-09T19:39:40.224Z,45.60
2019-03-09T19:42:12.513Z,45.90
2019-03-09T19:44:44.839Z,45.70
2019-03-09T19:47:18.385Z,45.60
2019-03-09T19:49:50.878Z,45.60
2019-03-09T19:52:23.432Z,45.70
2019-03-09T19:54:55.833Z,45.70
2019-03-09T19:57:28.179Z,45.60
2019-03-09T20:00:00.640Z,45.70
2019-03-09T20:02:33.142Z,46.30
2019-03-09T20:05:07.417Z,45.70
2019-03-09T20:07:39.901Z,45.70
2019-03-09T20:10:13.255Z,45.60
2019-03-09T20:12:45.621Z,45.80
2019-03-09T20:15:18.032Z,45.80
2019-03-09T20:17:51.367Z,45.70
2019-03-09T20:20:23.957Z,45.80
2019-03-09T20:22:57.130Z,45.70
2019-03-09T20:25:29.526Z,45.70
2019-03-09T20:28:02.083Z,45.70
2019-03-09T20:30:34.478Z,45.60
2019-03-09T20:33:07.039Z,45.60
2019-03-09T20:35:39.436Z,45.60
2019-03-09T20:38:12.999Z,45.10
2019-03-09T20:40:45.457Z,45.50
2019-03-09T20:43:17.893Z,45.40
2019-03-09T20:45:50.288Z,45.50
2019-03-09T20:48:22.653Z,45.50
2019-03-09T20:50:55.280Z,45.40
2019-03-09T20:53:27.558Z,45.30
2019-03-09T20:56:00.060Z,45.30
2019-03-09T20:58:32.417Z,45.10
2019-03-09T21:01:04.858Z,45.30
2019-03-09T21:03:37.222Z,45.40
2019-03-09T21:06:09.632Z,45.30
2019-03-09T21:08:42.039Z,45.30
2019-03-09T21:11:14.443Z,45.40
2019-03-09T21:13:46.798Z,45.30
2019-03-09T21:16:19.183Z,45.40
2019-03-09T21:18:51.549Z,45.40
2019-03-09T21:21:23.935Z,45.40
2019-03-09T21:23:56.311Z,45.40
2019-03-09T21:26:28.698Z,45.50
2019-03-09T21:29:01.076Z,45.50
2019-03-09T21:31:33.655Z,45.60
2019-03-09T21:34:06.104Z,45.60
2019-03-09T21:36:38.497Z,45.50
2019-03-09T21:39:10.863Z,45.50
2019-03-09T21:41:44.051Z,45.60
2019-03-09T21:44:16.482Z,45.60
2019-03-09T21:46:48.886Z,45.60
2019-03-09T21:49:21.254Z,45.60
2019-03-09T21:51:53.621Z,45.50
2019-03-09T21:54:26.002Z,45.50
2019-03-09T21:56:58.394Z,45.50
2019-03-09T21:59:30.681Z,45.50
2019-03-09T22:02:03.089Z,45.60
2019-03-09T22:04:35.505Z,45.60
2019-03-09T22:07:07.890Z,45.60
2019-03-09T22:09:40.282Z,45.60
2019-03-09T22:12:12.821Z,45.60
2019-03-09T22:14:45.198Z,45.60
2019-03-09T22:17:17.598Z,45.50
2019-03-09T22:19:49.953Z,45.50
2019-03-09T22:22:22.385Z,45.60
2019-03-09T22:24:54.746Z,45.60
2019-03-09T22:27:27.137Z,45.60
2019-03-09T22:29:59.734Z,45.60
2019-03-09T22:32:32.111Z,45.60
2019-03-09T22:35:05.769Z,45.70
2019-03-09T22:37:38.144Z,45.60
2019-03-09T22:40:11.163Z,45.60
2019-03-09T22:42:43.544Z,45.60
2019-03-09T22:45:15.937Z,45.60
2019-03-09T22:47:48.328Z,45.60
2019-03-09T22:50:20.820Z,45.60
2019-03-09T22:52:53.138Z,45.70
2019-03-09T22:55:25.522Z,45.60
2019-03-09T22:57:57.877Z,45.60
2019-03-09T23:00:30.550Z,45.60
2019-03-09T23:03:04.638Z,45.60
2019-03-09T23:05:37.002Z,45.70
2019-03-09T23:08:09.391Z,45.80
2019-03-09T23:10:41.788Z,45.80
2019-03-09T23:13:14.001Z,45.80
2019-03-09T23:15:46.364Z,45.80
2019-03-09T23:18:18.749Z,45.80
2019-03-09T23:20:51.109Z,45.90
2019-03-09T23:23:23.422Z,45.90
2019-03-09T23:25:55.776Z,45.80
2019-03-09T23:28:39.149Z,46.00
2019-03-09T23:31:11.507Z,45.80
2019-03-09T23:33:43.946Z,45.90
2019-03-09T23:36:16.305Z,45.90
2019-03-09T23:38:48.684Z,45.90
2019-03-09T23:41:21.062Z,46.00
2019-03-09T23:43:53.471Z,46.10
2019-03-09T23:46:25.880Z,46.10
2019-03-09T23:48:58.268Z,46.10
2019-03-09T23:51:30.650Z,46.80
2019-03-09T23:54:03.013Z,46.10
2019-03-09T23:56:35.396Z,46.10
2019-03-09T23:59:07.782Z,46.20
